Time;durP1;ratioP1;P1;durP2;ratioP2;P2;SDS_P1;SDS_P2;PMS_P1;PMS_P2;Temp;Humidity;BMP_temperature;BMP_pressure;BME280_temperature;BME280_humidity;BME280_pressure;Samples;Min_cycle;Max_cycle;Signal;HPM_P1;HPM_P2
2021/11/04 00:01:07;;;;;;;7.70;4.60;;;;;;;10.22;57.77;97068.91;117284;1176;69193;-59
2021/11/04 00:03:37;;;;;;;5.70;4.10;;;;;;;10.22;58.37;97064.92;117220;1177;59542;-63
2021/11/04 00:06:07;;;;;;;;;;;;;;;10.22;57.90;97069.41;117274;1177;59545;-61
2021/11/04 00:08:37;;;;;;;8.80;4.80;;;;;;;10.24;58.27;97071.55;117045;1177;69733;-61
2021/11/04 00:11:07;;;;;;;7.40;3.80;;;;;;;10.24;58.03;97092.27;117164;1177;68398;-61
2021/11/04 00:13:39;;;;;;;8.30;3.70;;;;;;;10.26;57.43;97095.23;117246;1176;69217;-61
2021/11/04 00:16:09;;;;;;;;;;;;;;;10.25;59.16;97107.33;117196;1177;59535;-61
2021/11/04 00:18:40;;;;;;;7.40;3.90;;;;;;;10.24;58.46;97094.16;117285;1176;59564;-61
2021/11/04 00:21:10;;;;;;;6.40;3.70;;;;;;;10.24;58.59;97099.08;117231;1176;71330;-61
2021/11/04 00:23:40;;;;;;;5.00;3.60;;;;;;;10.26;57.52;97089.89;117299;1174;68442;-62
2021/11/04 00:26:12;;;;;;;5.40;4.10;;;;;;;10.29;57.36;97081.81;117250;1177;69028;-61
2021/11/04 00:28:42;;;;;;;8.80;6.90;;;;;;;10.27;58.37;97093.23;117077;1177;59523;-60
2021/11/04 00:31:15;;;;;;;7.90;5.20;;;;;;;10.16;61.27;97091.27;116950;1177;59475;-62
2021/11/04 00:33:49;;;;;;;6.50;4.50;;;;;;;10.13;61.11;97080.54;117241;1177;70564;-61
2021/11/04 00:36:20;;;;;;;6.80;4.50;;;;;;;10.09;60.38;97101.52;117094;1177;68344;-61
2021/11/04 00:38:49;;;;;;;7.00;4.90;;;;;;;10.08;60.58;97097.97;117222;1168;69052;-61
2021/11/04 00:41:19;;;;;;;;;;;;;;;9.97;62.80;97093.73;117176;1177;59576;-61
2021/11/04 00:43:49;;;;;;;7.20;4.70;;;;;;;9.93;61.13;97094.73;117229;1177;59526;-60
2021/11/04 00:46:19;;;;;;;5.60;3.60;;;;;;;9.96;60.41;97093.47;117268;1176;69593;-61
2021/11/04 00:48:49;;;;;;;3.90;3.10;;;;;;;9.98;59.90;97089.30;117076;1177;68588;-60
2021/11/04 00:51:19;;;;;;;5.40;4.70;;;;;;;9.98;60.86;97085.66;117068;1177;69265;-61
2021/11/04 00:53:49;;;;;;;4.20;2.90;;;;;;;9.97;60.98;97088.91;117211;1176;59530;-60
2021/11/04 00:56:19;;;;;;;;;;;;;;;9.98;60.08;97084.42;117201;1177;59537;-61
2021/11/04 00:58:49;;;;;;;4.30;3.40;;;;;;;10.01;60.90;97089.41;117078;1177;70447;-59
2021/11/04 01:01:20;;;;;;;5.90;4.10;;;;;;;10.02;61.03;97088.67;117311;1177;68450;-60
2021/11/04 01:03:52;;;;;;;5.30;4.30;;;;;;;10.02;61.08;97085.70;117239;1175;68418;-58
2021/11/04 01:06:22;;;;;;;5.00;3.50;;;;;;;9.95;63.57;97083.08;117288;1176;59526;-63
2021/11/04 01:08:52;;;;;;;6.90;3.90;;;;;;;9.91;61.79;97088.33;117329;1176;59520;-61
2021/11/04 01:11:23;;;;;;;;;;;;;;;9.93;61.08;97081.89;117295;1176;70562;-63
2021/11/04 01:13:53;;;;;;;9.70;6.40;;;;;;;9.93;63.06;97083.94;117139;1177;67642;-61
2021/11/04 01:16:24;;;;;;;9.70;5.90;;;;;;;9.90;62.27;97076.73;117283;1176;68274;-61
2021/11/04 01:18:55;;;;;;;9.80;6.50;;;;;;;9.79;63.80;97082.63;117076;1176;59524;-60
2021/11/04 01:21:25;;;;;;;;;;;;;;;9.76;63.06;97082.49;117306;1175;59558;-60
2021/11/04 01:23:55;;;;;;;9.20;7.10;;;;;;;9.71;63.40;97082.27;117315;1176;71368;-61
2021/11/04 01:26:24;;;;;;;6.30;4.80;;;;;;;9.74;62.68;97084.17;117301;1176;66986;-61
2021/11/04 01:28:54;;;;;;;6.70;5.30;;;;;;;9.79;61.56;97086.20;117163;1177;69204;-61
2021/11/04 01:31:25;;;;;;;6.60;4.50;;;;;;;9.84;61.04;97081.83;117269;1176;59520;-61
2021/11/04 01:33:55;;;;;;;8.80;6.10;;;;;;;9.92;61.61;97077.38;117359;1176;59513;-60
2021/11/04 01:36:25;;;;;;;8.70;5.60;;;;;;;9.94;62.25;97077.94;117002;1177;71184;-61
2021/11/04 01:38:55;;;;;;;7.70;5.70;;;;;;;9.91;64.79;97075.94;117336;1175;68193;-61
2021/11/04 01:41:25;;;;;;;9.30;6.60;;;;;;;9.90;63.30;97077.95;117278;1176;69218;-61
2021/11/04 01:43:56;;;;;;;12.90;8.60;;;;;;;9.84;64.75;97080.25;117306;1177;59531;-61
2021/11/04 01:46:27;;;;;;;13.60;10.10;;;;;;;9.77;65.03;97074.73;117218;1176;59495;-61
2021/11/04 01:48:59;;;;;;;11.70;7.90;;;;;;;9.61;65.13;97073.82;117254;1175;70829;-60
2021/11/04 01:51:28;;;;;;;9.50;6.30;;;;;;;9.58;64.79;97071.94;117268;1176;68354;-61
2021/11/04 01:53:59;;;;;;;8.70;5.70;;;;;;;9.59;63.88;97075.66;117263;1177;68896;-61
2021/11/04 01:56:29;;;;;;;8.20;6.70;;;;;;;9.60;65.96;97063.84;117279;1176;59494;-61
2021/11/04 01:59:01;;;;;;;7.70;6.50;;;;;;;9.59;65.60;97066.86;117308;1177;59541;-60
2021/11/04 02:01:36;;;;;;;7.00;6.00;;;;;;;9.58;65.96;97061.53;117290;1177;70667;-61
2021/11/04 02:04:15;;;;;;;7.80;6.10;;;;;;;9.56;66.04;97051.21;117340;1175;67635;-61
2021/11/04 02:06:57;;;;;;;8.70;5.70;;;;;;;9.57;64.86;97041.45;117231;1177;68457;-60
2021/11/04 02:09:34;;;;;;;7.50;5.30;;;;;;;9.63;63.42;97034.20;117116;1176;59538;-61
2021/11/04 02:12:16;;;;;;;8.10;5.20;;;;;;;9.68;63.94;97030.80;117125;1174;59543;-60
2021/11/04 02:14:52;;;;;;;8.30;5.30;;;;;;;9.75;62.87;97032.61;117209;1177;71371;-61
2021/11/04 02:17:23;;;;;;;10.00;6.60;;;;;;;9.80;62.59;97035.16;117285;1177;68317;-61
2021/11/04 02:19:57;;;;;;;6.40;4.80;;;;;;;9.81;62.86;97036.69;117269;1177;69212;-63
2021/11/04 02:22:28;;;;;;;7.10;4.60;;;;;;;9.85;61.74;97040.55;116901;1169;59552;-61
2021/11/04 02:25:10;;;;;;;7.10;4.30;;;;;;;9.89;61.20;97041.40;117239;1177;59558;-62
2021/11/04 02:27:49;;;;;;;6.70;4.70;;;;;;;9.93;61.08;97040.74;116940;1177;71187;-61
2021/11/04 02:30:21;;;;;;;5.70;4.40;;;;;;;9.96;62.06;97041.96;117253;1175;66892;-60
2021/11/04 02:32:53;;;;;;;5.70;3.60;;;;;;;9.97;61.92;97052.54;117155;1176;69243;-60
2021/11/04 02:35:24;;;;;;;5.80;3.90;;;;;;;9.99;60.92;97051.82;117231;1177;59476;-62
2021/11/04 02:37:55;;;;;;;6.50;3.90;;;;;;;10.03;60.43;97052.91;117132;1177;59490;-60
2021/11/04 02:40:25;;;;;;;6.60;4.20;;;;;;;10.07;60.03;97048.23;117280;1176;71342;-59
2021/11/04 02:42:55;;;;;;;11.10;8.10;;;;;;;10.10;61.93;97052.54;117320;1176;68430;-61
2021/11/04 02:45:26;;;;;;;10.50;8.10;;;;;;;9.94;65.22;97060.55;117176;1177;70531;-64
2021/11/04 02:47:56;;;;;;;14.20;8.80;;;;;;;9.84;64.81;97054.72;117262;1177;59530;-60
2021/11/04 02:50:27;;;;;;;11.80;7.70;;;;;;;9.72;65.61;97052.63;116869;1176;59540;-60
2021/11/04 02:52:57;;;;;;;11.30;7.30;;;;;;;9.66;65.43;97054.50;117181;1175;71136;-60
2021/11/04 02:55:36;;;;;;;7.40;5.30;;;;;;;9.62;65.92;97055.27;117000;1177;68232;-62
2021/11/04 02:58:07;;;;;;;9.80;7.30;;;;;;;9.63;65.84;97046.88;117266;1176;69032;-60
2021/11/04 03:00:40;;;;;;;7.20;5.00;;;;;;;9.57;66.43;97040.16;117301;1177;59563;-61
2021/11/04 03:03:11;;;;;;;5.60;4.10;;;;;;;9.57;63.97;97040.20;117019;1174;59547;-61
2021/11/04 03:05:41;;;;;;;;;;;;;;;9.64;62.64;97045.75;117252;1177;71393;-61
2021/11/04 03:08:11;;;;;;;6.40;3.40;;;;;;;9.72;61.91;97046.36;117235;1177;68397;-61
2021/11/04 03:10:41;;;;;;;6.50;3.50;;;;;;;9.81;61.07;97048.98;116915;1177;68456;-61
2021/11/04 03:13:13;;;;;;;6.10;3.30;;;;;;;9.90;59.86;97040.99;117203;1177;59504;-60
2021/11/04 03:15:50;;;;;;;5.90;3.00;;;;;;;10.00;59.51;97035.59;117190;1177;59525;-61
2021/11/04 03:18:21;;;;;;;4.60;2.40;;;;;;;10.06;60.06;97034.38;117152;1177;70612;-60
2021/11/04 03:20:53;;;;;;;5.30;3.50;;;;;;;10.07;60.40;97027.51;117070;1177;67922;-61
2021/11/04 03:23:24;;;;;;;3.70;3.00;;;;;;;10.06;59.95;97016.42;117120;1177;69303;-60
2021/11/04 03:25:55;;;;;;;4.80;3.10;;;;;;;10.07;58.74;97022.49;117279;1177;59597;-61
2021/11/04 03:28:26;;;;;;;7.10;5.40;;;;;;;10.10;59.54;97017.14;117098;1178;59549;-60
2021/11/04 03:31:00;;;;;;;7.50;4.60;;;;;;;10.05;60.56;97020.71;117240;1177;71308;-61
2021/11/04 03:33:32;;;;;;;9.20;6.30;;;;;;;9.98;61.89;97031.34;117152;1176;68187;-61
2021/11/04 03:36:03;;;;;;;8.70;6.10;;;;;;;9.69;63.91;97034.62;117198;1177;68287;-61
2021/11/04 03:38:34;;;;;;;7.00;4.70;;;;;;;9.68;62.17;97037.46;117131;1177;59564;-61
2021/11/04 03:41:06;;;;;;;6.30;4.10;;;;;;;9.68;61.37;97029.77;117155;1177;59561;-61
2021/11/04 03:43:37;;;;;;;7.30;4.60;;;;;;;9.68;61.54;97039.14;116899;1177;71351;-61
2021/11/04 03:46:07;;;;;;;6.00;4.20;;;;;;;9.69;61.53;97038.55;116935;1178;68398;-61
2021/11/04 03:48:43;;;;;;;5.30;3.80;;;;;;;9.70;61.31;97041.14;117019;1177;67471;-62
2021/11/04 03:51:15;;;;;;;10.50;4.40;;;;;;;9.68;60.70;97048.56;116913;1176;59539;-61
2021/11/04 03:53:48;;;;;;;7.10;4.70;;;;;;;9.67;61.59;97048.67;116863;1177;59552;-62
2021/11/04 03:56:21;;;;;;;7.20;5.00;;;;;;;9.64;61.31;97049.23;117105;1174;71382;-61
2021/11/04 03:58:50;;;;;;;4.80;2.80;;;;;;;9.63;60.60;97036.30;116837;1177;68439;-60
2021/11/04 04:01:21;;;;;;;5.90;4.40;;;;;;;9.62;60.31;97034.98;117133;1177;69032;-61
2021/11/04 04:03:52;;;;;;;5.60;3.40;;;;;;;9.60;60.52;97030.55;116839;1177;59516;-58
2021/11/04 04:06:22;;;;;;;4.30;3.30;;;;;;;9.61;60.41;97025.65;117238;1176;59615;-56
2021/11/04 04:08:53;;;;;;;5.80;3.80;;;;;;;9.57;62.03;97028.33;117310;1175;71380;-63
2021/11/04 04:11:23;;;;;;;3.30;2.40;;;;;;;9.54;61.17;97031.52;117241;1177;68064;-63
2021/11/04 04:13:55;;;;;;;5.20;2.90;;;;;;;9.53;60.69;97030.21;117130;1177;68713;-62
2021/11/04 04:16:25;;;;;;;4.10;3.10;;;;;;;9.54;60.54;97033.48;117019;1177;59567;-61
2021/11/04 04:18:55;;;;;;;5.00;3.30;;;;;;;9.52;60.91;97028.55;117063;1176;59520;-61
2021/11/04 04:21:25;;;;;;;5.30;3.80;;;;;;;9.52;60.87;97029.30;117040;1177;71141;-61
2021/11/04 04:23:56;;;;;;;6.70;4.50;;;;;;;9.48;61.30;97022.62;117107;1177;68412;-60
2021/11/04 04:26:25;;;;;;;8.00;4.60;;;;;;;9.45;61.69;97030.48;116926;1177;69357;-61
2021/11/04 04:28:55;;;;;;;8.70;5.20;;;;;;;9.43;61.14;97028.73;116864;1177;59572;-61
2021/11/04 04:31:24;;;;;;;7.40;4.40;;;;;;;9.43;60.24;97031.98;116988;1177;59503;-63
2021/11/04 04:33:54;;;;;;;;;;;;;;;9.46;59.83;97028.98;117061;1177;71280;-60
2021/11/04 04:36:23;;;;;;;5.80;4.40;;;;;;;9.50;59.85;97030.48;117126;1177;67503;-61
2021/11/04 04:38:54;;;;;;;5.80;3.20;;;;;;;9.54;59.38;97032.21;117012;1176;68453;-60
2021/11/04 04:41:23;;;;;;;7.10;4.70;;;;;;;9.61;59.26;97032.56;116825;1177;59553;-61
2021/11/04 04:43:53;;;;;;;6.00;4.00;;;;;;;9.66;59.25;97031.01;117066;1176;59481;-60
2021/11/04 04:46:23;;;;;;;5.90;4.20;;;;;;;9.68;59.12;97023.48;117108;1177;70572;-61
2021/11/04 04:48:52;;;;;;;5.70;4.70;;;;;;;9.73;59.21;97027.01;116838;1177;67624;-60
2021/11/04 04:51:22;;;;;;;7.70;4.30;;;;;;;9.76;59.00;97023.30;116985;1177;68533;-60
2021/11/04 04:53:52;;;;;;;22.00;10.10;;;;;;;9.80;58.95;97021.21;117174;1177;59542;-62
2021/11/04 04:56:21;;;;;;;23.30;12.60;;;;;;;9.84;58.73;97020.23;117129;1177;59539;-62
2021/11/04 04:58:51;;;;;;;22.90;14.30;;;;;;;9.87;58.57;97018.60;117272;1175;71300;-61
2021/11/04 05:01:20;;;;;;;24.80;14.80;;;;;;;9.90;58.11;97019.42;117138;1175;67601;-59
2021/11/04 05:03:50;;;;;;;11.90;7.30;;;;;;;9.96;57.64;97019.31;117174;1176;68467;-60
2021/11/04 05:06:20;;;;;;;8.50;6.00;;;;;;;10.04;57.41;97018.58;117190;1177;59561;-59
2021/11/04 05:08:49;;;;;;;7.20;5.10;;;;;;;10.11;57.41;97017.83;117163;1176;59526;-61
2021/11/04 05:11:19;;;;;;;14.00;8.50;;;;;;;10.18;57.00;97018.35;117264;1177;71199;-61
2021/11/04 05:13:48;;;;;;;11.90;7.60;;;;;;;10.22;56.79;97017.35;117259;1177;68375;-61
2021/11/04 05:16:17;;;;;;;11.70;7.30;;;;;;;10.25;56.67;97013.14;117283;1177;68473;-57
2021/11/04 05:18:47;;;;;;;10.50;7.40;;;;;;;10.27;56.71;97018.58;117138;1176;59587;-61
2021/11/04 05:21:16;;;;;;;10.40;6.80;;;;;;;10.27;56.89;97022.57;117289;1177;59518;-59
2021/11/04 05:23:46;;;;;;;9.60;7.20;;;;;;;10.27;56.83;97018.20;117286;1170;70640;-60
2021/11/04 05:26:15;;;;;;;8.90;5.90;;;;;;;10.28;57.02;97017.02;117164;1170;68503;-60
2021/11/04 05:28:45;;;;;;;8.30;6.10;;;;;;;10.28;56.93;97016.39;117033;1177;69214;-61
2021/11/04 05:31:14;;;;;;;7.90;6.30;;;;;;;10.28;56.86;97013.09;117215;1177;59535;-60
2021/11/04 05:33:44;;;;;;;8.20;5.00;;;;;;;10.29;57.10;97013.52;117252;1176;59497;-61
2021/11/04 05:36:13;;;;;;;6.50;5.00;;;;;;;10.31;57.24;97025.07;117230;1177;70825;-61
2021/11/04 05:38:43;;;;;;;8.60;6.40;;;;;;;10.31;57.13;97041.55;117228;1177;68457;-60
2021/11/04 05:41:12;;;;;;;6.50;5.00;;;;;;;10.34;56.92;97047.95;117047;1177;69334;-62
2021/11/04 05:43:41;;;;;;;6.70;3.60;;;;;;;10.38;56.84;97053.36;117134;1177;59911;-61
2021/11/04 05:46:11;;;;;;;5.70;3.80;;;;;;;10.42;56.45;97043.87;117117;1173;59955;-59
2021/11/04 05:48:40;;;;;;;4.90;3.00;;;;;;;10.50;56.13;97037.16;117188;1177;70585;-60
2021/11/04 05:51:11;;;;;;;4.40;2.80;;;;;;;10.59;55.90;97030.64;117153;1177;67755;-61
2021/11/04 05:53:41;;;;;;;5.10;3.90;;;;;;;10.70;55.61;97031.34;117075;1177;69291;-61
2021/11/04 05:56:10;;;;;;;5.00;3.40;;;;;;;10.80;55.63;97021.17;117159;1176;59522;-61
2021/11/04 05:58:39;;;;;;;5.00;4.00;;;;;;;10.89;56.05;97017.48;116956;1168;59529;-61
2021/11/04 06:01:09;;;;;;;6.10;4.40;;;;;;;10.95;55.74;97011.95;116857;1177;69613;-61
2021/11/04 06:03:38;;;;;;;9.00;5.90;;;;;;;11.01;55.73;97019.01;117119;1177;67965;-60
2021/11/04 06:06:07;;;;;;;10.40;7.10;;;;;;;11.02;56.69;97019.56;117110;1177;68570;-61
2021/11/04 06:08:37;;;;;;;12.20;9.00;;;;;;;11.06;56.43;97022.00;116976;1177;59555;-60
2021/11/04 06:11:06;;;;;;;14.80;10.30;;;;;;;11.11;56.56;97025.48;117221;1177;59528;-61
2021/11/04 06:13:36;;;;;;;11.50;8.70;;;;;;;11.17;56.59;97032.32;117241;1176;71900;-62
2021/11/04 06:16:12;;;;;;;10.80;9.00;;;;;;;11.21;56.51;97042.21;117189;1177;68793;-61
2021/11/04 06:18:43;;;;;;;9.20;6.50;;;;;;;11.26;56.01;97048.30;117246;1176;69370;-61
2021/11/04 06:21:13;;;;;;;;;;;;;;;11.31;55.89;97043.87;117194;1175;59571;-61
2021/11/04 06:23:42;;;;;;;12.60;8.30;;;;;;;11.36;56.07;97041.90;117190;1177;59529;-61
2021/11/04 06:26:13;;;;;;;12.20;7.40;;;;;;;11.40;56.33;97037.90;117258;1175;71390;-61
2021/11/04 06:28:43;;;;;;;7.40;5.20;;;;;;;11.46;56.45;97037.23;116904;1177;67770;-63
2021/11/04 06:31:12;;;;;;;6.50;4.30;;;;;;;11.55;56.06;97045.11;117214;1175;69322;-61
2021/11/04 06:33:41;;;;;;;6.10;5.50;;;;;;;11.63;55.85;97051.17;117118;1175;59797;-61
2021/11/04 06:36:11;;;;;;;8.00;5.40;;;;;;;11.71;55.33;97062.22;117266;1177;59912;-62
2021/11/04 06:38:40;;;;;;;7.30;5.10;;;;;;;11.81;55.21;97069.61;117229;1177;70576;-61
2021/11/04 06:41:10;;;;;;;6.40;4.90;;;;;;;11.91;55.16;97060.77;117182;1173;68359;-61
2021/11/04 06:43:41;;;;;;;7.30;5.40;;;;;;;12.06;55.15;97047.86;117142;1177;68509;-61
2021/11/04 06:46:13;;;;;;;7.90;5.20;;;;;;;12.19;54.83;97042.48;116885;1177;59968;-61
2021/11/04 06:48:46;;;;;;;7.30;4.90;;;;;;;12.33;54.27;97044.63;117159;1177;59542;-61
2021/11/04 06:51:21;;;;;;;6.10;5.00;;;;;;;12.46;54.36;97041.73;117108;1175;71444;-62
2021/11/04 06:53:56;;;;;;;6.70;5.20;;;;;;;12.62;54.32;97038.65;117203;1176;67766;-61
2021/11/04 06:56:25;;;;;;;6.30;4.10;;;;;;;12.75;53.78;97031.34;117233;1177;68485;-61
2021/11/04 06:58:56;;;;;;;7.80;4.70;;;;;;;12.90;53.58;97025.72;117298;1177;59551;-63
2021/11/04 07:01:25;;;;;;;;;;;;;;;13.05;52.79;97026.26;117294;1174;59484;-61
2021/11/04 07:04:00;;;;;;;4.40;3.30;;;;;;;13.24;52.61;97022.48;117190;1177;71365;-61
2021/11/04 07:06:35;;;;;;;5.30;3.50;;;;;;;13.38;52.12;97026.73;117322;1177;68395;-58
2021/11/04 07:09:06;;;;;;;6.00;3.60;;;;;;;13.55;51.52;97029.36;117192;1177;69510;-63
2021/11/04 07:11:36;;;;;;;3.80;2.80;;;;;;;13.73;50.71;97026.69;116815;1178;59584;-62
2021/11/04 07:14:05;;;;;;;5.20;3.20;;;;;;;13.89;50.42;97020.65;117149;1170;59529;-60
2021/11/04 07:16:35;;;;;;;6.00;3.60;;;;;;;14.03;49.96;97014.20;117263;1176;70565;-62
2021/11/04 07:19:04;;;;;;;4.40;2.80;;;;;;;14.16;49.70;97012.11;117159;1177;67904;-60
2021/11/04 07:21:42;;;;;;;3.60;2.80;;;;;;;14.30;49.03;97002.92;116968;1173;68494;-61
2021/11/04 07:24:21;;;;;;;3.60;2.70;;;;;;;14.47;48.83;96989.92;117205;1177;59491;-61
2021/11/04 07:26:53;;;;;;;5.90;2.90;;;;;;;14.64;48.08;96990.09;117226;1177;59548;-61
2021/11/04 07:29:33;;;;;;;4.70;3.10;;;;;;;14.80;47.58;96987.73;117139;1168;71933;-61
2021/11/04 07:32:03;;;;;;;4.30;2.60;;;;;;;14.97;47.02;96985.55;117083;1177;68411;-60
2021/11/04 07:34:32;;;;;;;4.40;2.60;;;;;;;15.17;46.61;96981.34;117157;1177;69222;-61
2021/11/04 07:37:03;;;;;;;4.10;2.30;;;;;;;15.61;45.67;96978.38;117146;1177;59517;-61
2021/11/04 07:39:33;;;;;;;4.50;2.90;;;;;;;16.22;44.66;96971.11;117143;1176;59529;-61
2021/11/04 07:42:05;;;;;;;3.70;2.10;;;;;;;16.78;43.30;96969.92;117088;1177;70873;-60
2021/11/04 07:44:36;;;;;;;4.70;3.00;;;;;;;17.00;42.42;96960.70;116930;1177;67693;-60
2021/11/04 07:47:07;;;;;;;3.60;2.70;;;;;;;17.04;42.06;96947.27;117109;1177;68565;-61
2021/11/04 07:49:36;;;;;;;4.50;2.70;;;;;;;16.96;42.40;96945.59;117095;1168;59570;-61
2021/11/04 07:52:06;;;;;;;4.30;3.00;;;;;;;16.94;42.54;96951.30;117102;1176;59498;-60
2021/11/04 07:54:36;;;;;;;3.20;2.40;;;;;;;17.01;42.27;96955.17;117029;1176;71250;-61
2021/11/04 07:57:05;;;;;;;6.70;3.10;;;;;;;17.23;41.68;96957.70;117167;1176;67690;-64
2021/11/04 07:59:34;;;;;;;4.60;2.50;;;;;;;17.55;41.05;96962.55;117142;1176;69308;-61
2021/11/04 08:02:04;;;;;;;4.50;2.70;;;;;;;17.96;40.61;96956.89;117233;1177;59502;-61
2021/11/04 08:04:35;;;;;;;3.80;2.40;;;;;;;18.39;39.52;96950.50;117175;1177;59503;-61
2021/11/04 08:07:07;;;;;;;3.70;2.40;;;;;;;18.80;38.39;96947.52;117144;1177;71756;-61
2021/11/04 08:09:37;;;;;;;3.60;2.30;;;;;;;19.36;38.24;96939.92;116877;1177;68462;-63
2021/11/04 08:12:07;;;;;;;4.50;2.60;;;;;;;20.02;37.41;96925.23;117233;1176;68553;-61
2021/11/04 08:14:37;;;;;;;3.70;2.40;;;;;;;20.57;36.20;96925.36;117254;1176;59535;-60
2021/11/04 08:17:06;;;;;;;4.40;2.20;;;;;;;21.00;35.22;96926.59;117156;1173;59542;-61
2021/11/04 08:19:35;;;;;;;3.90;2.40;;;;;;;21.29;34.51;96926.39;117061;1177;71372;-63
2021/11/04 08:22:05;;;;;;;5.50;2.30;;;;;;;21.60;33.74;96924.01;117218;1176;67829;-60
2021/11/04 08:24:34;;;;;;;4.40;2.20;;;;;;;21.98;33.19;96931.05;117228;1176;68597;-62
2021/11/04 08:27:04;;;;;;;3.40;2.30;;;;;;;22.38;32.57;96933.96;117181;1174;59529;-59
2021/11/04 08:29:33;;;;;;;4.50;2.60;;;;;;;22.87;31.81;96931.52;117052;1177;59862;-60
2021/11/04 08:32:04;;;;;;;4.90;2.80;;;;;;;23.27;30.50;96933.92;117032;1177;70817;-61
2021/11/04 08:34:34;;;;;;;4.90;2.80;;;;;;;23.69;30.32;96939.48;117116;1177;67989;-61
2021/11/04 08:37:04;;;;;;;3.50;2.60;;;;;;;24.02;30.12;96940.50;117180;1177;68676;-63
2021/11/04 08:39:33;;;;;;;;;;;;;;;24.53;29.68;96944.14;117180;1178;59475;-61
2021/11/04 08:42:04;;;;;;;4.90;2.10;;;;;;;24.79;28.04;96960.56;117156;1176;59545;-61
2021/11/04 08:44:34;;;;;;;4.40;2.10;;;;;;;24.85;28.09;96961.98;117250;1177;71398;-61
2021/11/04 08:47:03;;;;;;;3.40;2.30;;;;;;;24.98;27.73;96956.70;117116;1177;67414;-61
2021/11/04 08:49:34;;;;;;;5.20;2.70;;;;;;;24.94;27.56;96956.65;117159;1177;68501;-60
2021/11/04 08:52:05;;;;;;;5.40;3.10;;;;;;;24.98;27.43;96967.69;117110;1177;59502;-60
2021/11/04 08:54:34;;;;;;;4.20;2.40;;;;;;;24.69;27.77;96965.91;116956;1176;59492;-59
2021/11/04 08:57:04;;;;;;;4.20;2.30;;;;;;;24.61;28.17;96963.52;117255;1176;71981;-63
2021/11/04 08:59:34;;;;;;;3.60;2.10;;;;;;;24.51;28.38;96964.69;117157;1177;68433;-61
2021/11/04 09:02:05;;;;;;;3.70;2.00;;;;;;;24.96;28.30;96967.37;117106;1177;68586;-61
2021/11/04 09:04:34;;;;;;;3.40;1.70;;;;;;;25.34;27.72;96967.55;117171;1177;59530;-61
2021/11/04 09:07:03;;;;;;;;;;;;;;;25.38;27.32;96966.48;117094;1177;59536;-63
2021/11/04 09:09:32;;;;;;;4.70;2.00;;;;;;;25.52;26.90;96967.10;117168;1176;70841;-61
2021/11/04 09:12:02;;;;;;;3.90;2.30;;;;;;;24.97;27.48;96969.17;117121;1177;68504;-62
2021/11/04 09:14:31;;;;;;;5.70;2.70;;;;;;;24.81;28.02;96963.04;117190;1177;69343;-61
2021/11/04 09:17:00;;;;;;;;;;;;;;;24.79;27.99;96958.85;117183;1177;59538;-61
2021/11/04 09:19:29;;;;;;;4.50;2.60;;;;;;;24.51;28.57;96963.58;117197;1175;59484;-61
2021/11/04 09:21:59;;;;;;;3.90;2.70;;;;;;;24.70;28.11;96961.71;116935;1177;70471;-61
2021/11/04 09:24:30;;;;;;;4.50;2.40;;;;;;;24.41;28.48;96964.19;116939;1176;68396;-60
2021/11/04 09:27:03;;;;;;;4.50;2.30;;;;;;;23.93;29.23;96964.19;117269;1175;69353;-61
2021/11/04 09:29:34;;;;;;;5.50;2.50;;;;;;;23.23;30.41;96958.27;117319;1175;59516;-61
2021/11/04 09:32:06;;;;;;;4.60;2.50;;;;;;;22.84;30.83;96952.36;117210;1177;59634;-62
2021/11/04 09:34:56;;;;;;;4.80;2.90;;;;;;;22.13;32.14;96950.39;116929;1176;70587;-60
2021/11/04 09:37:25;;;;;;;4.50;2.80;;;;;;;21.73;32.75;96938.48;117240;1176;67479;-63
2021/11/04 09:39:55;;;;;;;5.10;2.80;;;;;;;21.50;32.94;96933.17;117282;1176;69599;-61
2021/11/04 10:11:06;;;;;;;5.90;3.30;;;;;;;21.75;33.73;96907.33;114386;1198;609199;-65
2021/11/04 10:13:36;;;;;;;5.30;2.70;;;;;;;22.11;33.59;96906.30;115946;1185;57473;-65
2021/11/04 10:16:10;;;;;;;5.00;2.70;;;;;;;22.40;32.82;96905.66;115954;1185;57417;-64
2021/11/04 10:18:41;;;;;;;4.80;2.80;;;;;;;22.43;32.72;96911.98;115927;1185;68959;-64
2021/11/04 10:21:25;;;;;;;5.20;2.70;;;;;;;22.45;32.81;96912.04;115905;1185;68570;-64
2021/11/04 10:23:54;;;;;;;4.90;3.00;;;;;;;22.86;32.35;96914.25;115872;1186;69949;-64
2021/11/04 10:26:26;;;;;;;5.90;2.60;;;;;;;23.46;31.51;96916.63;115880;1185;57840;-64
2021/11/04 10:29:03;;;;;;;5.60;2.70;;;;;;;23.53;31.09;96911.77;115743;1185;57495;-65
2021/11/04 10:31:41;;;;;;;3.70;2.20;;;;;;;23.88;30.95;96906.32;115913;1185;68980;-65
2021/11/04 10:34:15;;;;;;;;;;;;;;;24.21;30.38;96905.96;115954;1186;67701;-65
2021/11/04 10:36:45;;;;;;;6.10;2.50;;;;;;;24.37;30.20;96898.77;115913;1185;69831;-65
2021/11/04 10:39:14;;;;;;;7.40;2.80;;;;;;;24.63;29.75;96901.65;116047;1185;57881;-64
2021/11/04 10:41:44;;;;;;;;;;;;;;;24.35;30.32;96910.71;115948;1185;57967;-64
2021/11/04 10:44:17;;;;;;;5.90;2.80;;;;;;;23.77;31.04;96906.01;115921;1186;69786;-65
2021/11/04 10:46:57;;;;;;;5.90;2.50;;;;;;;23.87;31.10;96899.59;115825;1187;68816;-65
2021/11/04 10:49:39;;;;;;;8.90;3.20;;;;;;;23.80;31.45;96899.77;115819;1187;69294;-66
2021/11/04 10:52:09;;;;;;;5.00;2.70;;;;;;;23.69;31.72;96905.11;115669;1187;57965;-66
2021/11/04 10:54:48;;;;;;;5.90;3.30;;;;;;;23.65;31.77;96909.05;115994;1185;57936;-65
2021/11/04 10:57:38;;;;;;;6.70;3.40;;;;;;;23.53;32.05;96899.63;116121;1185;69736;-64
2021/11/04 11:00:17;;;;;;;5.00;3.30;;;;;;;23.57;32.09;96905.54;116082;1186;68524;-64
2021/11/04 11:03:00;;;;;;;5.90;3.50;;;;;;;23.68;32.17;96899.56;115983;1185;69190;-64
2021/11/04 11:05:36;;;;;;;8.50;3.20;;;;;;;23.79;32.12;96896.15;116006;1185;57958;-64
2021/11/04 11:08:07;;;;;;;4.40;2.40;;;;;;;24.12;31.60;96891.64;115931;1185;57926;-64
2021/11/04 11:10:37;;;;;;;6.70;3.00;;;;;;;24.77;30.83;96888.95;115993;1185;69010;-64
2021/11/04 11:13:07;;;;;;;7.00;3.50;;;;;;;25.27;29.87;96893.20;115883;1185;68493;-65
2021/11/04 11:15:39;;;;;;;6.50;2.90;;;;;;;25.76;29.31;96886.92;115939;1185;68495;-65
2021/11/04 11:18:09;;;;;;;8.30;3.10;;;;;;;25.86;28.93;96880.70;116046;1185;58007;-65
2021/11/04 11:20:47;;;;;;;6.00;2.70;;;;;;;26.18;28.55;96873.48;115926;1185;58012;-65
2021/11/04 11:23:25;;;;;;;6.90;2.70;;;;;;;27.03;27.76;96878.98;115880;1185;70339;-65
2021/11/04 11:26:01;;;;;;;4.50;2.40;;;;;;;27.74;26.20;96881.11;115923;1187;68146;-64
2021/11/04 11:28:35;;;;;;;5.40;3.20;;;;;;;28.21;25.32;96873.58;115823;1186;69031;-65
2021/11/04 11:31:13;;;;;;;3.70;2.60;;;;;;;28.45;24.82;96874.73;116041;1186;57916;-64
2021/11/04 11:34:05;;;;;;;7.60;2.80;;;;;;;28.25;25.24;96871.73;115887;1186;57966;-64
2021/11/04 11:36:34;;;;;;;5.30;2.80;;;;;;;28.13;25.50;96866.21;115723;1177;70357;-65
2021/11/04 11:39:06;;;;;;;;;;;;;;;27.71;25.98;96865.73;116379;1183;68546;-63
2021/11/04 11:41:55;;;;;;;8.80;3.00;;;;;;;27.16;26.03;96866.39;116172;1184;68591;-65
2021/11/04 11:44:43;;;;;;;8.40;3.00;;;;;;;26.12;27.07;96864.77;116272;1182;57935;-65
2021/11/04 11:47:17;;;;;;;6.50;2.50;;;;;;;25.61;27.66;96857.42;116367;1182;57923;-65
2021/11/04 11:49:49;;;;;;;4.50;2.20;;;;;;;24.62;29.38;96863.52;116384;1182;69842;-64
2021/11/04 11:53:18;;;;;;;6.00;2.40;;;;;;;24.50;29.69;96867.30;116312;1181;68412;-64
2021/11/04 11:55:49;;;;;;;4.90;2.30;;;;;;;23.97;30.56;96874.92;116494;1182;69229;-66
2021/11/04 11:58:22;;;;;;;7.20;3.00;;;;;;;24.61;29.78;96867.33;116459;1182;57846;-65
2021/11/04 12:01:05;;;;;;;6.70;3.00;;;;;;;25.21;29.07;96866.73;116387;1182;57902;-64
2021/11/04 12:03:35;;;;;;;5.30;2.90;;;;;;;26.19;27.81;96875.04;116367;1182;69681;-64
2021/11/04 12:06:11;;;;;;;8.00;2.70;;;;;;;26.72;26.68;96881.94;116532;1182;68576;-64
2021/11/04 12:08:53;;;;;;;7.10;3.00;;;;;;;26.69;26.45;96886.25;116363;1182;69155;-64
2021/11/04 12:11:34;;;;;;;7.70;3.00;;;;;;;26.76;26.59;96875.44;116378;1181;57959;-64
2021/11/04 12:14:29;;;;;;;5.80;3.00;;;;;;;26.57;26.62;96879.10;116338;1182;57933;-64
2021/11/04 12:17:05;;;;;;;6.70;3.10;;;;;;;26.28;27.07;96876.51;116352;1175;69879;-64
2021/11/04 12:19:44;;;;;;;4.70;2.50;;;;;;;26.30;26.97;96879.28;116416;1183;69004;-65
2021/11/04 12:22:40;;;;;;;4.70;2.40;;;;;;;26.10;27.17;96873.83;116350;1182;69198;-66